Results For
Goodman Properties Warrington Cares Sprint Tri/Du/Aqua

Warrington, PA 18976
Timing Services provided by . Questions About Results? Get in touch!

Use the filters boxes below to search results.

Interactive Version
Place Bib Name                 Gender Age City              State Chip    Clock   Rank Run 1   Pace  Rank Tran1   Rank Bike    Rate Rank Tran2   Rank Run 2   Pace  Div/Tot Div   Sex/Tot S Club                  
                                                                  Time    Time                                                                                                                                    
===== === ==================== ====== === ================= ===== ======= ======= ==== ======= ===== ==== ======= ==== ======= ==== ==== ======= ==== ======= ===== ======= ===== ======= = ===================== 
1     177 Joe Ricci            M      39  Bensalem          PA    0:56:51 0:57:18 1    0:11:10 5:35  1    0:00:28 3    0:26:47 22.4 8    0:00:44 2    0:17:43 5:42  1/3     TOPMW 1/23    M Philadelphia Tri Club 
2     173 Mark Garrity         M      30  Coatesville       PA    0:58:14 0:58:41 2    0:11:10 5:35  10   0:00:52 4    0:27:55 21.5 5    0:00:40 1    0:17:38 5:41  2/3     TOPMW 2/23    M                       
3     178 Quoc Ngo             M      40  Conshohocken      PA    0:59:23 0:59:50 4    0:12:01 6:01  11   0:00:56 1    0:25:58 23.1 7    0:00:44 3    0:19:46 6:22  3/3     TOPMW 3/23    M Philadelphia Tri Club 
4     166 Ryan Fulmer          M      39  North Wales       PA    1:01:31 1:01:58 6    0:12:32 6:16  3    0:00:33 2    0:26:19 22.8 1    0:00:33 7    0:21:35 6:57  1/6     M3039 4/23    M                       
5     202 Dominic McElhinney   M      50  Philadelphia      PA    1:02:58 1:03:25 5    0:12:30 6:15  7    0:00:46 6    0:28:43 20.9 6    0:00:41 5    0:20:19 6:33  1/5     M5059 5/23    M                       
6     210 Anthony Schorr       M      47  East Brunswick    NJ    1:03:31 1:03:58 7    0:12:52 6:26  5    0:00:42 5    0:28:27 21.1 9    0:00:45 6    0:20:47 6:42  1/4     M4049 6/23    M                       
7     179 Chris Allbrook       M      30  Southampton       PA    1:04:54 1:05:21 8    0:12:55 6:28  2    0:00:32 7    0:29:04 20.6 2    0:00:37 8    0:21:49 7:02  2/6     M3039 7/23    M                       
8     183 Tim Hayburn          M      44  Ardmore           PA    1:05:34 1:06:01 3    0:11:31 5:46  8    0:00:46 12   0:32:51 18.3 4    0:00:40 4    0:19:48 6:23  2/4     M4049 8/23    M                       
9     176 Matt W Hayes         M      58  Havertown         PA    1:07:07 1:07:34 9    0:13:22 6:41  4    0:00:40 8    0:30:03 20   14   0:00:55 9    0:22:09 7:08  2/5     M5059 9/23    M                       
10    192 Jim Algeo            M      31  Conshohocken      PA    1:10:09 1:10:36 10   0:13:31 6:46  12   0:01:00 9    0:30:40 19.6 10   0:00:46 15   0:24:14 7:48  3/6     M3039 10/23   M Philadelphia Tri Club 
11    193 Michael Nonnemacher  M      47  Warminster        PA    1:12:06 1:12:33 11   0:13:35 6:48  26   0:01:56 10   0:31:38 19   26   0:02:05 10   0:22:53 7:22  3/4     M4049 11/23   M                       
12    169 Scott Egger          M      57  Chesapeake City   MD    1:14:21 1:14:48 17   0:15:46 7:53  13   0:01:00 13   0:33:05 18.1 11   0:00:51 11   0:23:42 7:38  3/5     M5059 12/23   M                       
13    170 Jill Sterbakov       F      52  Drexel Hill       PA    1:14:33 1:15:00 15   0:15:25 7:43  15   0:01:02 11   0:32:12 18.6 23   0:01:40 16   0:24:17 7:49  1/3     TOPFW 1/5     F Cadence Racing        
14    174 Matthew Walters      M      54  Richboro          PA    1:15:58 1:16:25 13   0:14:42 7:21  17   0:01:13 16   0:34:34 17.4 22   0:01:37 13   0:23:54 7:42  4/5     M5059 13/23   M Bucks County Tri Club 
15    182 Matthew Petitti      M      30  Philadelphia      PA    1:18:20 1:18:47 12   0:13:50 6:55  18   0:01:15 20   0:38:25 15.6 12   0:00:53 14   0:24:00 7:44  4/6     M3039 14/23   M                       
16    190 Lia Chak             F      25  Warrington        PA    1:20:02 1:20:29 14   0:14:48 7:24  6    0:00:46 24   0:40:10 14.9 3    0:00:38 12   0:23:43 7:38  2/3     TOPFW 2/5     F                       
17    175 Anthony Warnock      M      54  Willow Grove      PA    1:22:00 1:22:27 18   0:15:59 8:00  27   0:02:02 19   0:36:59 16.2 24   0:01:55 17   0:25:08 8:06  5/5     M5059 15/23   M                       
18    165 Brian Zobel          M      64  Haddonfield       NJ    1:22:04 1:22:31 21   0:17:03 8:32  16   0:01:08 17   0:34:51 17.2 13   0:00:53 19   0:28:11 9:05  1/4     M6069 16/23   M Tri856                
19    181 Lindsay Brown        F      34  Macungie          PA    1:22:19 1:22:46 19   0:16:29 8:15  25   0:01:46 14   0:33:36 17.9 21   0:01:27 22   0:29:03 9:21  3/3     TOPFW 3/5     F Mission Multisport    
20    172 vincent aloyo        M      74  Blue Bell         PA    1:23:11 1:23:38 23   0:17:59 9:00  21   0:01:23 15   0:34:18 17.5 16   0:01:10 20   0:28:23 9:09  1/1     M7099 17/23   M                       
21    196 Jesse Farmer         M      35  Toms River        NJ    1:23:31 1:23:58 20   0:16:45 8:23  24   0:01:27 18   0:35:21 17   28   0:02:14 18   0:27:47 8:57  5/6     M3039 18/23   M                       
22    191 Jonathan Nonnemacher M      43  Northampton       PA    1:27:24 1:27:51 16   0:15:35 7:48  14   0:01:01 25   0:40:36 14.8 17   0:01:10 23   0:29:04 9:22  4/4     M4049 19/23   M                       
23    168 Peter Schwalm        M      62  New Hope          PA    1:27:38 1:28:05 22   0:17:13 8:37  20   0:01:22 23   0:38:56 15.4 20   0:01:24 21   0:28:45 9:15  2/4     M6069 20/23   M                       
24    180 Jason Greenspon      M      35  Philadelphia      PA    1:34:41 1:35:08 27   0:18:51 9:26  23   0:01:24 21   0:38:46 15.5 25   0:02:02 25   0:33:39 10:50 6/6     M3039 21/23   M                       
25    197 Ronald Ehrmann       M      62  Warrington        PA    1:37:21 1:37:48 26   0:18:44 9:22  9    0:00:51 27   0:41:50 14.3 15   0:01:08 26   0:34:50 11:13 3/4     M6069 22/23   M                       
26    185 Richard Zeises       M      69  Huntingdon Valley PA    1:37:23 1:37:50 24   0:18:06 9:03  19   0:01:15 28   0:46:22 12.9 27   0:02:13 24   0:29:29 9:30  4/4     M6069 23/23   M Paramount Multisport  
27    201 Doreen Crowle        F      57  Norristown        PA    1:37:52 1:38:19 28   0:21:05 10:33 22   0:01:24 22   0:38:54 15.4 18   0:01:17 27   0:35:15 11:21 1/1     F5059 4/5     F                       
28    188 Jennifer Steele      F      35  Houston           TX    1:38:27 1:38:54 25   0:18:29 9:15  28   0:02:20 26   0:40:51 14.7 19   0:01:17 28   0:35:31 11:26 1/1     F3039 5/5     F                       

If you continue to use this site, you consent to use all cookies. We use cookies to offer you a better browsing experience. Read how we use cookies and how you can control them by visiting our Privacy Policy.

If you continue to use this site, you consent to use all cookies.